createdAt,value
2022-08-01T04:32:49.584Z,0
2022-08-01T04:33:57.941Z,0
2022-08-01T04:35:22.634Z,0
2022-08-01T04:36:14.907Z,4.8
2022-08-01T04:37:23.288Z,4.8
2022-08-01T04:38:31.684Z,4.8
2022-08-01T04:39:50.106Z,5.3
2022-08-01T04:40:48.614Z,5.3
2022-08-01T04:41:57.001Z,5.3
2022-08-01T04:43:05.713Z,6.2
2022-08-01T04:44:13.951Z,6.2
2022-08-01T04:45:22.311Z,6.2
2022-08-01T04:46:30.895Z,6.4
2022-08-01T04:47:39.305Z,6.4
2022-08-01T04:48:47.722Z,6.4
2022-08-01T04:49:56.253Z,12.3
2022-08-01T04:51:04.634Z,12.3
2022-08-01T04:52:17.450Z,12.3
2022-08-01T04:53:22.546Z,11.7
2022-08-01T04:54:30.978Z,11.7
2022-08-01T04:55:39.473Z,11.7
2022-08-01T04:56:48.047Z,10.5
2022-08-01T04:57:56.449Z,10.5
2022-08-01T04:59:04.866Z,10.5
2022-08-01T05:00:16.053Z,12.9
2022-08-01T05:01:25.383Z,12.9
2022-08-01T05:02:33.694Z,12.9
2022-08-01T05:03:42.279Z,11.3
2022-08-01T05:04:50.643Z,11.3
2022-08-01T05:05:59.033Z,11.3
2022-08-01T05:07:07.605Z,6.3
2022-08-01T05:08:16.114Z,6.3
2022-08-01T05:09:28.200Z,6.3
2022-08-01T05:10:33.246Z,5.3
2022-08-01T05:11:42.129Z,5.3
2022-08-01T05:12:50.506Z,5.3
2022-08-01T05:13:59.115Z,5.4
2022-08-01T05:15:10.558Z,5.4
2022-08-01T05:16:15.849Z,5.4
2022-08-01T05:17:24.434Z,4.2
2022-08-01T05:18:32.862Z,4.2
2022-08-01T05:19:41.196Z,4.2
2022-08-01T05:20:49.779Z,3.6
2022-08-01T05:21:59.257Z,3.6
2022-08-01T05:23:06.523Z,3.6
2022-08-01T05:24:15.103Z,3.2
2022-08-01T05:25:36.503Z,3.2
2022-08-01T05:26:31.976Z,3.2
2022-08-01T05:27:40.468Z,4.7
2022-08-01T05:28:48.775Z,4.7
2022-08-01T05:29:57.146Z,4.7
2022-08-01T05:31:05.745Z,3.7
2022-08-01T05:32:14.106Z,3.7
2022-08-01T05:33:22.510Z,3.7
2022-08-01T05:34:31.089Z,3.1
2022-08-01T05:35:48.408Z,3.1
2022-08-01T05:36:47.830Z,3.1
2022-08-01T05:37:56.408Z,3.3
2022-08-01T05:39:04.805Z,3.3
2022-08-01T05:40:13.158Z,3.3
2022-08-01T05:41:21.721Z,3.9
2022-08-01T05:42:30.101Z,3.9
2022-08-01T05:43:38.466Z,3.9
2022-08-01T05:44:47.049Z,3.6
2022-08-01T05:45:55.420Z,3.6
2022-08-01T05:47:03.774Z,3.6
2022-08-01T05:48:12.360Z,4.1
2022-08-01T05:49:20.806Z,4.1
2022-08-01T05:50:29.117Z,4.1
2022-08-01T05:51:37.684Z,3.7
2022-08-01T05:52:46.059Z,3.7
2022-08-01T05:53:54.429Z,3.7
2022-08-01T05:55:03.015Z,5.1
2022-08-01T05:56:11.378Z,5.1
2022-08-01T05:57:19.751Z,5.1
2022-08-01T05:58:28.333Z,3.9
2022-08-01T05:59:36.698Z,3.9
2022-08-01T06:00:45.085Z,3.9
2022-08-01T06:01:53.733Z,3.1
2022-08-01T06:03:02.048Z,3.1
2022-08-01T06:04:10.415Z,3.1
2022-08-01T06:05:18.986Z,3
2022-08-01T06:06:27.367Z,3
2022-08-01T06:07:35.761Z,3
2022-08-01T06:08:44.370Z,3.1
2022-08-01T06:09:52.740Z,3.1
2022-08-01T06:11:01.113Z,3.1
2022-08-01T06:12:09.687Z,3.8
2022-08-01T06:13:18.062Z,3.8
2022-08-01T06:14:26.480Z,3.8
2022-08-01T06:15:47.490Z,3.6
2022-08-01T06:16:57.649Z,3.6
2022-08-01T06:18:06.231Z,3.6
2022-08-01T06:19:15.641Z,4.9
2022-08-01T06:20:28.886Z,4.9
2022-08-01T06:21:39.065Z,4.9
2022-08-01T06:22:51.801Z,4.2
2022-08-01T06:23:56.018Z,4.2
2022-08-01T06:25:04.384Z,4.2
2022-08-01T06:26:12.963Z,5.2
2022-08-01T06:27:22.108Z,5.2
2022-08-01T06:28:29.757Z,5.2
2022-08-01T06:29:38.355Z,4.4
2022-08-01T06:30:46.718Z,4.4
2022-08-01T06:31:55.097Z,4.4
2022-08-01T06:33:03.704Z,3.1
2022-08-01T06:34:12.112Z,3.1
2022-08-01T06:35:20.479Z,3.1
2022-08-01T06:36:29.093Z,4.6
2022-08-01T06:37:37.501Z,4.6
2022-08-01T06:38:45.871Z,4.6
2022-08-01T06:39:54.450Z,3.2
2022-08-01T06:41:02.823Z,3.2
2022-08-01T06:42:11.193Z,3.2
2022-08-01T06:43:19.783Z,3.7
2022-08-01T06:44:28.149Z,3.7
2022-08-01T06:45:36.603Z,3.7
2022-08-01T06:46:45.163Z,4.4
2022-08-01T06:47:53.556Z,4.4
2022-08-01T06:49:02.033Z,4.4
2022-08-01T06:50:10.564Z,4.3
2022-08-01T06:51:18.928Z,4.3
2022-08-01T06:52:27.374Z,4.3
2022-08-01T06:53:36.671Z,3.8
2022-08-01T06:54:44.373Z,3.8
2022-08-01T06:55:52.755Z,3.8
2022-08-01T06:57:01.348Z,3.9
2022-08-01T06:58:09.725Z,3.9
2022-08-01T06:59:18.112Z,3.9
2022-08-01T07:00:26.798Z,3.1
2022-08-01T07:01:35.393Z,3.1
2022-08-01T07:02:43.504Z,3.1
2022-08-01T07:03:52.306Z,2.7
2022-08-01T07:05:00.539Z,2.7
2022-08-01T07:06:08.929Z,2.7
2022-08-01T07:07:17.543Z,2.7
2022-08-01T07:08:25.945Z,2.7
2022-08-01T07:09:34.344Z,2.7
2022-08-01T07:10:42.909Z,2.6
2022-08-01T07:11:51.289Z,2.6
2022-08-01T07:12:59.683Z,2.6
2022-08-01T07:14:08.337Z,3
2022-08-01T07:15:16.702Z,3
2022-08-01T07:16:25.079Z,3
2022-08-01T07:17:33.666Z,3.2
2022-08-01T07:18:42.042Z,3.2
2022-08-01T07:19:50.446Z,3.2
2022-08-01T07:20:59.023Z,3.7
2022-08-01T07:22:07.651Z,3.7
2022-08-01T07:23:15.793Z,3.7
2022-08-01T07:24:24.375Z,4.7
2022-08-01T07:25:33.900Z,4.7
2022-08-01T07:26:47.782Z,4.7
2022-08-01T07:27:50.861Z,3.6
2022-08-01T07:28:59.250Z,3.6
2022-08-01T07:30:07.629Z,3.6
2022-08-01T07:31:16.203Z,4.5
2022-08-01T07:32:24.597Z,4.5
2022-08-01T07:33:47.885Z,4.5
2022-08-01T07:34:42.738Z,3.2
2022-08-01T07:35:51.120Z,3.2
2022-08-01T07:36:59.554Z,3.2
2022-08-01T07:38:12.393Z,3.1
2022-08-01T07:39:16.509Z,3.1
2022-08-01T07:40:25.916Z,3.1
2022-08-01T07:41:45.688Z,3.3
2022-08-01T07:42:42.960Z,3.3
2022-08-01T07:43:57.221Z,3.3
2022-08-01T07:44:59.908Z,3.5
2022-08-01T07:46:08.286Z,3.5
2022-08-01T07:47:16.666Z,3.5
2022-08-01T07:48:25.279Z,4.1
2022-08-01T07:49:37.627Z,4.1
2022-08-01T07:50:42.008Z,4.1
2022-08-01T07:52:02.631Z,3.3
2022-08-01T07:52:58.973Z,3.3
2022-08-01T07:54:07.348Z,3.3
2022-08-01T07:55:16.153Z,3.2
2022-08-01T07:56:24.306Z,3.2
2022-08-01T07:57:32.678Z,3.2
2022-08-01T07:58:41.258Z,3.3
2022-08-01T07:59:49.636Z,3.3
2022-08-01T08:00:58.036Z,3.3
2022-08-01T08:02:07.047Z,3.8
2022-08-01T08:03:14.980Z,3.8
2022-08-01T08:04:23.372Z,3.8
2022-08-01T08:05:51.501Z,3.4
2022-08-01T08:06:40.304Z,3.4
2022-08-01T08:07:48.686Z,3.4
2022-08-01T08:08:57.262Z,3
2022-08-01T08:10:05.619Z,3
2022-08-01T08:11:13.983Z,3
2022-08-01T08:12:28.558Z,3.3
2022-08-01T08:13:30.954Z,3.3
2022-08-01T08:14:39.331Z,3.3
2022-08-01T08:15:48.269Z,3.3
2022-08-01T08:16:56.340Z,3.3
2022-08-01T08:18:04.767Z,3.3
2022-08-01T08:19:13.400Z,3.1
2022-08-01T08:20:21.769Z,3.1
2022-08-01T08:21:30.149Z,3.1
2022-08-01T08:22:38.732Z,2.5
2022-08-01T08:23:47.130Z,2.5
2022-08-01T08:24:55.493Z,2.5
2022-08-01T08:26:04.078Z,2.6
2022-08-01T08:27:12.488Z,2.6
2022-08-01T08:28:23.222Z,2.6
2022-08-01T08:29:29.517Z,3.5
2022-08-01T08:30:37.913Z,3.5
2022-08-01T08:31:51.101Z,3.5
2022-08-01T08:32:54.937Z,3
2022-08-01T08:34:03.322Z,3
2022-08-01T08:35:12.070Z,3
2022-08-01T08:36:20.298Z,3.1
2022-08-01T08:37:29.413Z,3.1
2022-08-01T08:38:37.109Z,3.1
2022-08-01T08:39:45.709Z,2.6
2022-08-01T08:40:54.093Z,2.6
2022-08-01T08:42:02.492Z,2.6
2022-08-01T08:43:11.078Z,2.9
2022-08-01T08:44:19.446Z,2.9
2022-08-01T08:45:30.844Z,2.9
2022-08-01T08:46:36.416Z,2.8
2022-08-01T08:47:44.800Z,2.8
2022-08-01T08:48:53.262Z,2.8
2022-08-01T08:50:01.790Z,2.4
2022-08-01T08:51:10.174Z,2.4
2022-08-01T08:52:18.569Z,2.4
2022-08-01T08:53:27.156Z,3.3
2022-08-01T08:54:35.543Z,3.3
2022-08-01T08:55:55.274Z,3.3
2022-08-01T08:56:52.494Z,2.6
2022-08-01T08:58:00.876Z,2.6
2022-08-01T08:59:09.248Z,2.6
2022-08-01T09:00:17.815Z,3.8
2022-08-01T09:01:26.195Z,3.8
2022-08-01T09:02:34.623Z,3.8
2022-08-01T09:03:43.205Z,4
2022-08-01T09:04:51.569Z,4
2022-08-01T09:05:59.952Z,4
2022-08-01T09:07:08.557Z,3.4
2022-08-01T09:08:16.927Z,3.4
2022-08-01T09:09:25.304Z,3.4
2022-08-01T09:10:33.872Z,7.8
2022-08-01T09:11:42.255Z,7.8
2022-08-01T09:12:50.629Z,7.8
2022-08-01T09:13:59.218Z,4.1
2022-08-01T09:15:07.619Z,4.1
2022-08-01T09:16:16.017Z,4.1
2022-08-01T09:17:24.612Z,2.9
2022-08-01T09:18:32.992Z,2.9
2022-08-01T09:19:41.852Z,2.9
2022-08-01T09:20:49.954Z,4.4
2022-08-01T09:21:58.426Z,4.4
2022-08-01T09:23:06.727Z,4.4
2022-08-01T09:24:15.303Z,3
2022-08-01T09:25:29.723Z,3
2022-08-01T09:26:32.048Z,3
2022-08-01T09:27:43.968Z,4.3
2022-08-01T09:28:49.007Z,4.3
2022-08-01T09:30:00.515Z,4.3
2022-08-01T09:31:05.955Z,3.8
2022-08-01T09:32:16.259Z,3.8
2022-08-01T09:33:22.682Z,3.8
2022-08-01T09:34:31.267Z,3.6
2022-08-01T09:35:43.071Z,3.6
2022-08-01T09:36:48.014Z,3.6
2022-08-01T09:37:56.595Z,3.2
2022-08-01T09:39:04.957Z,3.2
2022-08-01T09:40:13.335Z,3.2
2022-08-01T09:41:21.918Z,2.8
2022-08-01T09:42:30.296Z,2.8
2022-08-01T09:43:38.664Z,2.8
2022-08-01T09:44:54.299Z,2.8
2022-08-01T09:45:55.605Z,2.8
2022-08-01T09:47:07.550Z,2.8
2022-08-01T09:48:12.570Z,3.6
2022-08-01T09:49:20.952Z,3.6
2022-08-01T09:50:29.320Z,3.6
2022-08-01T09:51:57.933Z,2.5
2022-08-01T09:52:46.266Z,2.5
2022-08-01T09:53:54.751Z,2.5
2022-08-01T09:55:03.246Z,2.4
2022-08-01T09:56:11.624Z,2.4
2022-08-01T09:57:20.004Z,2.4
2022-08-01T09:58:28.580Z,3
2022-08-01T09:59:57.029Z,3
2022-08-01T10:00:45.937Z,3
2022-08-01T10:01:53.877Z,2.3
2022-08-01T10:03:10.131Z,2.3
2022-08-01T10:04:10.922Z,2.3
2022-08-01T10:05:21.024Z,2.8
2022-08-01T10:06:27.569Z,2.8
2022-08-01T10:07:43.298Z,2.8
2022-08-01T10:08:44.535Z,2.9
2022-08-01T10:09:52.897Z,2.9
2022-08-01T10:11:01.276Z,2.9
2022-08-01T10:12:15.358Z,9.6
2022-08-01T10:13:18.232Z,9.6
2022-08-01T10:14:26.631Z,9.6
2022-08-01T10:15:36.650Z,6.4
2022-08-01T10:16:43.645Z,6.4
2022-08-01T10:17:52.058Z,6.4
2022-08-01T10:19:00.611Z,5.1
2022-08-01T10:20:12.977Z,5.1
2022-08-01T10:21:17.375Z,5.1
2022-08-01T10:22:25.964Z,3
2022-08-01T10:23:39.618Z,3
2022-08-01T10:24:42.709Z,3
2022-08-01T10:25:51.325Z,3.2
2022-08-01T10:26:59.677Z,3.2
2022-08-01T10:28:08.042Z,3.2
2022-08-01T10:29:23.913Z,2.3
2022-08-01T10:30:25.066Z,2.3
2022-08-01T10:31:33.390Z,2.3
2022-08-01T10:32:41.964Z,2.7
2022-08-01T10:33:53.253Z,2.7
2022-08-01T10:34:58.736Z,2.7
2022-08-01T10:36:08.420Z,3.1
2022-08-01T10:37:15.764Z,3.1
2022-08-01T10:38:24.047Z,3.1
2022-08-01T10:39:32.751Z,3.1
2022-08-01T10:40:40.997Z,3.1
2022-08-01T10:41:49.398Z,3.1
2022-08-01T10:42:57.940Z,2.8
2022-08-01T10:44:06.319Z,2.8
2022-08-01T10:45:14.747Z,2.8
2022-08-01T10:46:23.285Z,1.7
2022-08-01T10:47:49.700Z,1.7
2022-08-01T10:48:40.035Z,1.7
2022-08-01T10:49:48.593Z,1.6
2022-08-01T10:50:56.979Z,1.6
2022-08-01T10:52:05.364Z,1.6
2022-08-01T10:53:15.359Z,2.1
2022-08-01T10:54:22.289Z,2.1
2022-08-01T10:55:30.664Z,2.1
2022-08-01T10:56:39.255Z,1.9
2022-08-01T10:57:48.960Z,1.9
2022-08-01T10:58:56.009Z,1.9
2022-08-01T11:00:04.600Z,1.8
2022-08-01T11:01:13.137Z,1.8
2022-08-01T11:02:21.356Z,1.8
2022-08-01T11:03:47.790Z,1.9
2022-08-01T11:04:38.302Z,1.9
2022-08-01T11:05:46.675Z,1.9
2022-08-01T11:06:55.251Z,2.9
2022-08-01T11:08:03.606Z,2.9
2022-08-01T11:09:11.984Z,2.9
2022-08-01T11:10:23.721Z,2.4
2022-08-01T11:11:28.910Z,2.4
2022-08-01T11:12:37.290Z,2.4
2022-08-01T11:13:45.889Z,2.1
2022-08-01T11:14:55.815Z,2.1
2022-08-01T11:16:06.008Z,2.1
2022-08-01T11:17:11.240Z,1.5
2022-08-01T11:18:19.617Z,1.5
2022-08-01T11:19:27.976Z,1.5
2022-08-01T11:20:42.239Z,2.2
2022-08-01T11:21:56.458Z,2.2
2022-08-01T11:22:53.300Z,2.2
2022-08-01T11:24:01.886Z,1.7
2022-08-01T11:25:10.273Z,1.7
2022-08-01T11:26:18.660Z,1.7
2022-08-01T11:27:27.220Z,2
2022-08-01T11:28:36.511Z,2
2022-08-01T11:29:43.957Z,2
2022-08-01T11:30:52.542Z,2.3
2022-08-01T11:32:00.908Z,2.3
2022-08-01T11:33:10.883Z,2.3
2022-08-01T11:34:17.878Z,1.6
2022-08-01T11:35:26.254Z,1.6
2022-08-01T11:36:57.955Z,1.6
2022-08-01T11:37:43.189Z,2.4
2022-08-01T11:38:51.547Z,2.4
2022-08-01T11:39:59.941Z,2.4
2022-08-01T11:41:08.507Z,2.8
2022-08-01T11:42:16.879Z,2.8
2022-08-01T11:43:25.245Z,2.8
2022-08-01T11:44:33.846Z,2.1
2022-08-01T11:45:42.210Z,2.1
2022-08-01T11:46:51.073Z,2.1
2022-08-01T11:47:59.177Z,2.3
2022-08-01T11:49:07.637Z,2.3
2022-08-01T11:50:15.929Z,2.3
2022-08-01T11:51:27.387Z,1.8
2022-08-01T11:52:35.752Z,1.8
2022-08-01T11:53:45.388Z,1.8
2022-08-01T11:54:53.984Z,1.9
2022-08-01T11:56:02.395Z,1.9
2022-08-01T11:57:10.957Z,1.9
2022-08-01T11:58:22.087Z,1.7
2022-08-01T11:59:27.720Z,1.7
2022-08-01T12:00:36.085Z,1.7
2022-08-01T12:01:44.665Z,1.5
2022-08-01T12:02:53.017Z,1.5
2022-08-01T12:04:01.404Z,1.5
2022-08-01T12:05:11.628Z,1.5
2022-08-01T12:06:18.359Z,1.5
2022-08-01T12:07:26.726Z,1.5
2022-08-01T12:08:35.317Z,1.8
2022-08-01T12:09:43.682Z,1.8
2022-08-01T12:10:52.049Z,1.8
2022-08-01T12:12:00.629Z,1.8
2022-08-01T12:13:08.997Z,1.8
2022-08-01T12:14:17.377Z,1.8
2022-08-01T12:15:25.968Z,3
2022-08-01T12:16:34.333Z,3
2022-08-01T12:17:43.618Z,3
2022-08-01T12:18:51.284Z,1.8
2022-08-01T12:19:59.657Z,1.8
2022-08-01T12:21:08.027Z,1.8
2022-08-01T12:22:16.608Z,1.2
2022-08-01T12:23:24.991Z,1.2
2022-08-01T12:24:33.353Z,1.2
2022-08-01T12:25:41.921Z,1.5
2022-08-01T12:26:50.308Z,1.5
2022-08-01T12:27:58.676Z,1.5
2022-08-01T12:29:07.281Z,1.8
2022-08-01T12:30:15.639Z,1.8
2022-08-01T12:31:24.019Z,1.8
2022-08-01T12:32:35.819Z,1.8
2022-08-01T12:33:40.989Z,1.8
2022-08-01T12:34:49.352Z,1.8
2022-08-01T12:35:57.925Z,1.8
2022-08-01T12:37:06.545Z,1.8
2022-08-01T12:38:14.680Z,1.8
2022-08-01T12:39:23.265Z,1.3
2022-08-01T12:40:31.638Z,1.3
2022-08-01T12:41:40.039Z,1.3
2022-08-01T12:42:48.619Z,1.8
2022-08-01T12:43:57.033Z,1.8
2022-08-01T12:45:05.394Z,1.8
2022-08-01T12:46:13.999Z,1.4
2022-08-01T12:47:22.355Z,1.4
2022-08-01T12:48:30.766Z,1.4
2022-08-01T12:49:39.404Z,1.3
2022-08-01T12:50:47.726Z,1.3
2022-08-01T12:51:57.333Z,1.3
2022-08-01T12:53:04.702Z,1.9
2022-08-01T12:54:13.078Z,1.9
2022-08-01T12:55:21.449Z,1.9
2022-08-01T12:56:30.025Z,1.3
2022-08-01T12:57:38.392Z,1.3
2022-08-01T12:58:46.759Z,1.3
2022-08-01T12:59:55.329Z,1.5
2022-08-01T13:01:03.756Z,1.5
2022-08-01T13:02:12.070Z,1.5
2022-08-01T13:03:20.755Z,1.3
2022-08-01T13:04:29.108Z,1.3
2022-08-01T13:05:37.489Z,1.3
2022-08-01T13:06:46.080Z,1.7
2022-08-01T13:07:54.436Z,1.7
2022-08-01T13:09:02.833Z,1.7
2022-08-01T13:10:11.473Z,1.4
2022-08-01T13:11:19.938Z,1.4
2022-08-01T13:12:28.387Z,1.4
2022-08-01T13:13:37.046Z,2.7
2022-08-01T13:14:45.465Z,2.7
2022-08-01T13:15:55.113Z,2.7
2022-08-01T13:17:02.795Z,1.3
2022-08-01T13:18:11.413Z,1.3
2022-08-01T13:19:19.962Z,1.3
2022-08-01T13:20:28.783Z,1.5
2022-08-01T13:21:52.390Z,1.5
2022-08-01T13:22:45.993Z,1.5
2022-08-01T13:24:02.381Z,1.4
2022-08-01T13:25:03.444Z,1.4
2022-08-01T13:26:12.013Z,1.4
2022-08-01T13:27:20.741Z,2.1
2022-08-01T13:28:29.322Z,2.1
2022-08-01T13:29:37.979Z,2.1
2022-08-01T13:30:47.420Z,1.8
2022-08-01T13:31:55.294Z,1.8
2022-08-01T13:33:03.847Z,1.8
2022-08-01T13:34:12.592Z,4.8
2022-08-01T13:35:21.246Z,4.8
2022-08-01T13:36:29.778Z,4.8
2022-08-01T13:37:39.403Z,7.6
2022-08-01T13:38:47.554Z,7.6
2022-08-01T13:39:56.184Z,7.6
2022-08-01T13:41:05.054Z,1.9
2022-08-01T13:42:16.418Z,1.9
2022-08-01T13:43:22.313Z,1.9
2022-08-01T13:44:31.085Z,1.8
2022-08-01T13:45:39.671Z,1.8
2022-08-01T13:46:49.580Z,1.8
2022-08-01T13:48:04.331Z,1.8
2022-08-01T13:49:15.098Z,1.8
2022-08-01T13:50:14.413Z,1.8
2022-08-01T13:51:23.247Z,1.8
2022-08-01T13:52:31.987Z,1.8
2022-08-01T13:53:40.451Z,1.8
2022-08-01T13:54:49.152Z,2.8
2022-08-01T13:55:57.811Z,2.8
2022-08-01T13:57:06.461Z,2.8
2022-08-01T13:58:15.339Z,2.4
2022-08-01T13:59:23.940Z,2.4
2022-08-01T14:00:32.533Z,2.4
2022-08-01T14:01:41.452Z,2
2022-08-01T14:02:49.933Z,2
2022-08-01T14:03:58.576Z,2
2022-08-01T14:05:07.389Z,1.5
2022-08-01T14:06:16.013Z,1.5
2022-08-01T14:07:24.637Z,1.5
2022-08-01T14:08:33.349Z,1.9
2022-08-01T14:09:44.772Z,1.9
2022-08-01T14:10:50.581Z,1.9
2022-08-01T14:11:59.408Z,1.3
2022-08-01T14:13:07.899Z,1.3
2022-08-01T14:14:16.484Z,1.3
2022-08-01T14:15:36.541Z,1.4
2022-08-01T14:16:33.686Z,1.4
2022-08-01T14:17:47.551Z,1.4
2022-08-01T14:18:51.058Z,1.9
2022-08-01T14:19:59.668Z,1.9
2022-08-01T14:21:08.224Z,1.9
2022-08-01T14:22:17.128Z,2.1
2022-08-01T14:23:25.683Z,2.1
2022-08-01T14:24:34.205Z,2.1
2022-08-01T14:25:58.293Z,1.5
2022-08-01T14:26:51.550Z,1.5
2022-08-01T14:28:00.199Z,1.5
2022-08-01T15:04:04.507Z,0
2022-08-01T15:05:12.395Z,0
2022-08-01T15:06:20.804Z,0
2022-08-01T15:07:29.489Z,1.2
2022-08-01T15:08:37.871Z,1.2
2022-08-01T15:09:46.293Z,1.2
2022-08-01T15:10:54.858Z,1.7
2022-08-01T15:12:03.383Z,1.7
2022-08-01T15:13:11.617Z,1.7
2022-08-01T15:14:20.191Z,1.1
2022-08-01T15:15:28.554Z,1.1
2022-08-01T15:16:36.930Z,1.1
2022-08-01T15:17:45.511Z,1.4
2022-08-01T15:18:53.867Z,1.4
2022-08-01T15:20:02.227Z,1.4
2022-08-01T15:21:14.475Z,1.7
2022-08-01T15:22:19.192Z,1.7
2022-08-01T15:23:27.561Z,1.7
2022-08-01T15:24:36.146Z,1.7
2022-08-01T15:25:44.531Z,1.7
2022-08-01T15:26:52.924Z,1.7
2022-08-01T15:28:01.493Z,1.8
2022-08-01T15:29:09.878Z,1.8
2022-08-01T15:30:23.625Z,1.8
2022-08-01T15:31:26.824Z,2.6
2022-08-01T15:32:35.200Z,2.6
2022-08-01T15:33:43.566Z,2.6
2022-08-01T15:34:52.138Z,2.6
2022-08-01T15:36:00.520Z,2.6
2022-08-01T15:37:08.913Z,2.6
2022-08-01T15:38:17.501Z,2
2022-08-01T15:39:25.909Z,2
2022-08-01T15:40:34.279Z,2
2022-08-01T15:41:42.866Z,1.4
2022-08-01T15:42:51.221Z,1.4
2022-08-01T15:43:59.596Z,1.4
2022-08-01T15:45:08.778Z,1.7
2022-08-01T15:46:16.534Z,1.7
2022-08-01T15:47:25.226Z,1.7
2022-08-01T15:48:35.997Z,2.3
2022-08-01T15:49:41.845Z,2.3
2022-08-01T15:50:50.213Z,2.3
2022-08-01T15:51:58.801Z,1.8
2022-08-01T15:53:07.152Z,1.8
2022-08-01T15:54:15.538Z,1.8
2022-08-01T15:55:24.125Z,1.3
2022-08-01T15:56:32.504Z,1.3
2022-08-01T15:57:40.890Z,1.3
2022-08-01T15:58:49.471Z,1.6
2022-08-01T15:59:57.991Z,1.6
2022-08-01T16:01:06.207Z,1.6
2022-08-01T16:02:14.875Z,1.9
2022-08-01T16:03:23.166Z,1.9
2022-08-01T16:04:31.561Z,1.9
2022-08-01T16:05:43.682Z,2.8
2022-08-01T16:06:48.518Z,2.8
2022-08-01T16:08:00.022Z,2.8
2022-08-01T16:09:05.467Z,2
2022-08-01T16:10:13.833Z,2
2022-08-01T16:11:22.211Z,2
2022-08-01T16:12:30.813Z,1.6
2022-08-01T16:13:39.179Z,1.6
2022-08-01T16:14:47.565Z,1.6
2022-08-01T16:15:56.169Z,1.5
2022-08-01T16:17:04.575Z,1.5
2022-08-01T16:18:12.991Z,1.5
2022-08-01T16:19:21.519Z,1.8
2022-08-01T16:20:29.929Z,1.8
2022-08-01T16:21:38.297Z,1.8
2022-08-01T16:22:46.905Z,1.5
2022-08-01T16:23:55.302Z,1.5
2022-08-01T16:25:03.712Z,1.5
2022-08-01T16:26:27.585Z,2
2022-08-01T16:27:23.288Z,2
2022-08-01T16:28:29.017Z,2
2022-08-01T16:29:37.627Z,1.7
2022-08-01T16:30:48.728Z,1.7
2022-08-01T16:32:03.349Z,1.7
2022-08-01T16:33:03.978Z,2
2022-08-01T16:34:13.766Z,2
2022-08-01T16:35:19.768Z,2
2022-08-01T16:36:28.341Z,1.5
2022-08-01T16:37:36.727Z,1.5
2022-08-01T16:38:45.129Z,1.5
2022-08-01T16:39:53.737Z,1.6
2022-08-01T16:41:02.102Z,1.6
2022-08-01T16:42:10.892Z,1.6
2022-08-01T16:43:19.071Z,1.8
2022-08-01T16:44:28.686Z,1.8
2022-08-01T16:45:39.402Z,1.8
2022-08-01T16:46:44.430Z,1.9
2022-08-01T16:47:52.920Z,1.9
2022-08-01T16:49:01.493Z,1.9
2022-08-01T16:50:09.948Z,3.5
2022-08-01T16:51:18.325Z,3.5
2022-08-01T16:52:28.646Z,3.5
2022-08-01T16:53:35.312Z,2.2
2022-08-01T16:54:43.683Z,2.2
2022-08-01T16:55:52.120Z,2.2
2022-08-01T16:57:08.187Z,3.3
2022-08-01T16:58:09.114Z,3.3
2022-08-01T16:59:17.511Z,3.3
2022-08-01T17:00:26.088Z,2.1
2022-08-01T17:01:53.513Z,2.1
2022-08-01T17:02:42.893Z,2.1
2022-08-01T17:03:54.765Z,2.1
2022-08-01T17:04:59.801Z,2.1
2022-08-01T17:06:08.171Z,2.1
2022-08-01T17:07:16.755Z,1.9
2022-08-01T17:08:25.115Z,1.9
2022-08-01T17:09:34.284Z,1.9
2022-08-01T17:10:42.594Z,1.4
2022-08-01T17:11:50.991Z,1.4
2022-08-01T17:12:59.357Z,1.4
2022-08-01T17:14:07.933Z,1.2
2022-08-01T17:15:16.297Z,1.2
2022-08-01T17:16:24.665Z,1.2
2022-08-01T17:17:33.251Z,1.2
2022-08-01T17:18:41.626Z,1.2
2022-08-01T17:19:49.990Z,1.2
2022-08-01T17:20:58.566Z,1
2022-08-01T17:22:06.942Z,1
2022-08-01T17:23:15.315Z,1
2022-08-01T17:24:23.895Z,2.6
2022-08-01T17:25:32.266Z,2.6
2022-08-01T17:26:40.677Z,2.6
2022-08-01T17:27:49.246Z,2.3
2022-08-01T17:28:57.610Z,2.3
2022-08-01T17:30:05.990Z,2.3
2022-08-01T17:31:14.548Z,1.6
2022-08-01T17:32:22.932Z,1.6
2022-08-01T17:33:44.934Z,1.6
2022-08-01T17:34:39.916Z,1
2022-08-01T17:35:48.276Z,1
2022-08-01T17:36:56.665Z,1
2022-08-01T17:38:05.241Z,1.1
2022-08-01T17:39:13.633Z,1.1
2022-08-01T17:40:39.457Z,1.1
2022-08-01T17:41:30.588Z,2.1
2022-08-01T17:42:39.351Z,2.1
2022-08-01T17:43:47.714Z,2.1
2022-08-01T17:44:57.034Z,2.1
2022-08-01T17:46:04.665Z,2.1
2022-08-01T17:47:24.178Z,2.1
2022-08-01T17:48:21.638Z,1.4
2022-08-01T17:49:52.618Z,1.4
2022-08-01T17:50:38.419Z,1.4
2022-08-01T17:51:47.008Z,2.6
2022-08-01T17:52:55.383Z,2.6
2022-08-01T17:54:03.764Z,2.6
2022-08-01T17:55:53.182Z,0.6
2022-08-01T17:56:20.758Z,0.6
2022-08-01T17:57:29.186Z,0.6
2022-08-01T17:58:50.412Z,2.2
2022-08-01T17:59:46.236Z,2.2
2022-08-01T18:00:54.599Z,2.2
2022-08-01T18:02:04.335Z,1.5
2022-08-01T18:03:11.563Z,1.5
2022-08-01T18:04:19.940Z,1.5
2022-08-01T18:05:36.082Z,1.2
2022-08-01T18:06:36.900Z,1.2
2022-08-01T18:08:00.831Z,1.2
2022-08-01T18:08:55.453Z,2
2022-08-01T18:10:02.203Z,2
2022-08-01T18:11:10.599Z,2
2022-08-01T18:12:19.164Z,0.7
2022-08-01T18:13:27.531Z,0.7
2022-08-01T18:14:40.366Z,0.7
2022-08-01T18:15:44.492Z,1
2022-08-01T18:16:52.859Z,1
2022-08-01T18:18:01.229Z,1
2022-08-01T18:19:09.813Z,2.5
2022-08-01T18:20:18.173Z,2.5
2022-08-01T18:21:26.550Z,2.5
2022-08-01T18:22:35.135Z,0.9
2022-08-01T18:23:44.358Z,0.9
2022-08-01T18:24:51.862Z,0.9
2022-08-01T18:26:00.456Z,1.7
2022-08-01T18:27:09.183Z,1.7
2022-08-01T18:28:29.540Z,1.7
2022-08-01T18:29:47.258Z,0.9
2022-08-01T18:30:34.125Z,0.9
2022-08-01T18:31:42.501Z,0.9
2022-08-01T18:32:51.062Z,1.2
2022-08-01T18:33:59.431Z,1.2
2022-08-01T18:35:10.915Z,1.2
2022-08-01T18:36:32.651Z,1.2
2022-08-01T18:37:24.760Z,1.2
2022-08-01T18:38:33.462Z,1.2
2022-08-01T18:39:41.709Z,1.1
2022-08-01T18:40:50.077Z,1.1
2022-08-01T18:41:58.453Z,1.1
2022-08-01T18:43:07.018Z,0.6
2022-08-01T18:44:15.383Z,0.6
2022-08-01T18:45:23.752Z,0.6
2022-08-01T18:46:32.337Z,2
2022-08-01T18:47:40.692Z,2
2022-08-01T18:48:49.170Z,2
2022-08-01T18:49:57.649Z,2.9
2022-08-01T18:51:06.036Z,2.9
2022-08-01T18:52:14.400Z,2.9
2022-08-01T18:53:22.975Z,1.9
2022-08-01T18:54:31.339Z,1.9
2022-08-01T18:55:39.713Z,1.9
2022-08-01T18:56:48.292Z,1.7
2022-08-01T18:57:56.667Z,1.7
2022-08-01T18:59:05.036Z,1.7
2022-08-01T19:00:13.632Z,2.6
2022-08-01T19:01:22.037Z,2.6
2022-08-01T19:02:30.353Z,2.6
2022-08-01T19:03:42.587Z,3.4
2022-08-01T19:04:47.287Z,3.4
2022-08-01T19:05:55.663Z,3.4
2022-08-01T19:07:04.415Z,3.4
2022-08-01T19:08:12.605Z,3.4
2022-08-01T19:09:21.105Z,3.4
2022-08-01T19:10:29.541Z,2.3
2022-08-01T19:11:37.892Z,2.3
2022-08-01T19:12:46.263Z,2.3
2022-08-01T19:13:54.842Z,2.9
2022-08-01T19:15:04.989Z,2.9
2022-08-01T19:16:11.666Z,2.9
2022-08-01T19:17:20.170Z,2.9
2022-08-01T19:18:28.535Z,2.9
2022-08-01T19:19:36.898Z,2.9
2022-08-01T19:20:45.486Z,5.2
2022-08-01T19:21:53.852Z,5.2
2022-08-01T19:23:02.214Z,5.2
2022-08-01T19:24:10.800Z,4.4
2022-08-01T19:25:19.173Z,4.4
2022-08-01T19:26:27.537Z,4.4
2022-08-01T19:27:36.122Z,6.6
2022-08-01T19:28:44.482Z,6.6
2022-08-01T19:29:52.858Z,6.6
2022-08-01T19:31:01.449Z,7.1
2022-08-01T19:32:09.835Z,7.1
2022-08-01T19:33:18.192Z,7.1
2022-08-01T19:34:27.014Z,4.7
2022-08-01T19:35:35.152Z,4.7
2022-08-01T19:36:43.520Z,4.7
2022-08-01T19:37:52.521Z,3
2022-08-01T19:39:00.471Z,3
2022-08-01T19:40:08.861Z,3
2022-08-01T19:41:17.437Z,1.5
2022-08-01T19:42:25.796Z,1.5
2022-08-01T19:43:38.470Z,1.5
2022-08-01T19:44:42.739Z,3.4
2022-08-01T19:45:51.118Z,3.4
2022-08-01T19:46:59.565Z,3.4
2022-08-01T19:48:08.144Z,2.8
2022-08-01T19:49:16.639Z,2.8
2022-08-01T19:50:24.928Z,2.8
2022-08-01T19:51:34.088Z,2.4
2022-08-01T19:52:41.843Z,2.4
2022-08-01T19:53:50.199Z,2.4
2022-08-01T19:54:58.778Z,2
2022-08-01T19:56:07.151Z,2
2022-08-01T19:57:15.523Z,2
2022-08-01T19:58:27.195Z,2.4
2022-08-01T19:59:32.453Z,2.4
2022-08-01T20:00:40.817Z,2.4
2022-08-01T20:01:49.395Z,1.3
2022-08-01T20:02:57.765Z,1.3
2022-08-01T20:04:06.161Z,1.3
2022-08-01T20:05:14.711Z,1.3
2022-08-01T20:06:23.665Z,1.3
2022-08-01T20:07:31.464Z,1.3
2022-08-01T20:08:40.025Z,1.6
2022-08-01T20:09:48.416Z,1.6
2022-08-01T20:10:56.804Z,1.6
2022-08-01T20:12:05.369Z,1.5
2022-08-01T20:13:13.731Z,1.5
2022-08-01T20:14:22.106Z,1.5
2022-08-01T20:15:30.687Z,3
2022-08-01T20:16:39.063Z,3
2022-08-01T20:17:47.414Z,3
2022-08-01T20:18:55.992Z,1.4
2022-08-01T20:20:05.577Z,1.4
2022-08-01T20:21:13.953Z,1.4
2022-08-01T20:22:22.535Z,2.3
2022-08-01T20:23:30.894Z,2.3
2022-08-01T20:24:39.657Z,2.3
2022-08-01T20:25:47.844Z,1.9
2022-08-01T20:26:56.211Z,1.9
2022-08-01T20:28:04.597Z,1.9
2022-08-01T20:29:13.159Z,1.8
2022-08-01T20:30:21.536Z,1.8
2022-08-01T20:31:33.933Z,1.8
2022-08-01T20:32:38.490Z,1.9
2022-08-01T20:33:46.841Z,1.9
2022-08-01T20:34:55.216Z,1.9
2022-08-01T20:36:03.792Z,1.6
2022-08-01T20:37:13.408Z,1.6
2022-08-01T20:38:20.530Z,1.6
2022-08-01T20:39:29.103Z,1.4
2022-08-01T20:40:37.478Z,1.4
2022-08-01T20:41:45.852Z,1.4
2022-08-01T20:42:54.426Z,1.6
2022-08-01T20:44:02.784Z,1.6
2022-08-01T20:45:14.220Z,1.6
2022-08-01T20:46:19.748Z,1.8
2022-08-01T20:47:28.122Z,1.8
2022-08-01T20:48:36.495Z,1.8
2022-08-01T20:49:45.097Z,1.8
2022-08-01T20:50:54.859Z,1.8
2022-08-01T20:52:02.111Z,1.8
2022-08-01T20:53:10.390Z,1.6
2022-08-01T20:54:18.765Z,1.6
2022-08-01T20:55:27.155Z,1.6